Aviation Digital Data Service (ADDS)

Output produced by TAFs form (0735 UTC 27 June 2016)
found at http://www.aviationweather.gov/adds/tafs/
 
KMRB 270537Z 2706/2806 00000KT P6SM FEW250 
     TEMPO 2708/2712 3SM BR 
     FM271200 18005KT P6SM SCT250 
     FM271500 18006KT P6SM BKN050 
     FM271700 15006KT P6SM -SHRA VCTS OVC050CB 
     FM272300 VRB03KT P6SM OVC050